sensor_id;sensor_type;location;lat;lon;timestamp;noise_LAeq;noise_LA_min;noise_LA_max;noise_LA01;noise_LA95
66449;Laerm;56828;52.294;4.666;2023-01-10T00:00:00;32.02;28.69;44.28;;
66449;Laerm;56828;52.294;4.666;2023-01-10T00:00:10;29.71;28.60;31.43;;
66449;Laerm;56828;52.294;4.666;2023-01-10T00:00:21;30.21;29.01;31.84;;
66449;Laerm;56828;52.294;4.666;2023-01-10T00:00:32;30.24;28.80;34.61;;
66449;Laerm;56828;52.294;4.666;2023-01-10T00:00:46;29.79;28.59;32.95;;
66449;Laerm;56828;52.294;4.666;2023-01-10T00:00:56;29.99;28.38;33.71;;
66449;Laerm;56828;52.294;4.666;2023-01-10T00:01:07;31.13;29.31;37.85;;
66449;Laerm;56828;52.294;4.666;2023-01-10T00:01:17;30.13;28.70;32.11;;
66449;Laerm;56828;52.294;4.666;2023-01-10T00:01:28;31.40;29.39;36.69;;
66449;Laerm;56828;52.294;4.666;2023-01-10T00:01:38;47.26;30.63;62.55;;
66449;Laerm;56828;52.294;4.666;2023-01-10T00:01:49;38.01;31.34;51.12;;
66449;Laerm;56828;52.294;4.666;2023-01-10T00:01:59;36.11;30.23;45.87;;
66449;Laerm;56828;52.294;4.666;2023-01-10T00:02:09;35.87;32.79;39.67;;
66449;Laerm;56828;52.294;4.666;2023-01-10T00:02:20;36.83;32.22;43.40;;
66449;Laerm;56828;52.294;4.666;2023-01-10T00:02:30;45.08;36.79;59.38;;
66449;Laerm;56828;52.294;4.666;2023-01-10T00:02:40;40.29;32.48;49.98;;
66449;Laerm;56828;52.294;4.666;2023-01-10T00:02:50;35.27;31.68;40.84;;
66449;Laerm;56828;52.294;4.666;2023-01-10T00:03:04;32.58;30.12;37.85;;
66449;Laerm;56828;52.294;4.666;2023-01-10T00:03:15;35.60;30.31;43.69;;
66449;Laerm;56828;52.294;4.666;2023-01-10T00:03:25;40.86;34.85;44.65;;
66449;Laerm;56828;52.294;4.666;2023-01-10T00:03:35;34.55;29.12;40.82;;
66449;Laerm;56828;52.294;4.666;2023-01-10T00:03:45;32.80;29.85;37.66;;
66449;Laerm;56828;52.294;4.666;2023-01-10T00:03:56;32.04;29.41;35.41;;
66449;Laerm;56828;52.294;4.666;2023-01-10T00:04:06;36.54;31.60;39.54;;
66449;Laerm;56828;52.294;4.666;2023-01-10T00:04:16;39.77;31.32;52.80;;
66449;Laerm;56828;52.294;4.666;2023-01-10T00:04:27;31.92;30.08;33.88;;
66449;Laerm;56828;52.294;4.666;2023-01-10T00:04:38;30.56;28.42;33.78;;
66449;Laerm;56828;52.294;4.666;2023-01-10T00:04:49;30.49;28.92;33.17;;
66449;Laerm;56828;52.294;4.666;2023-01-10T00:04:59;30.16;28.81;31.62;;
66449;Laerm;56828;52.294;4.666;2023-01-10T00:05:09;30.08;28.56;32.07;;
66449;Laerm;56828;52.294;4.666;2023-01-10T00:05:20;30.68;28.77;33.24;;
66449;Laerm;56828;52.294;4.666;2023-01-10T00:05:30;32.54;30.02;40.51;;
66449;Laerm;56828;52.294;4.666;2023-01-10T00:05:41;42.79;31.23;62.90;;
66449;Laerm;56828;52.294;4.666;2023-01-10T00:05:51;50.44;35.58;64.65;;
66449;Laerm;56828;52.294;4.666;2023-01-10T00:06:01;43.27;33.75;55.26;;
66449;Laerm;56828;52.294;4.666;2023-01-10T00:06:11;36.06;31.40;47.45;;
66449;Laerm;56828;52.294;4.666;2023-01-10T00:06:22;32.05;30.65;33.97;;
66449;Laerm;56828;52.294;4.666;2023-01-10T00:06:32;33.12;30.44;36.90;;
66449;Laerm;56828;52.294;4.666;2023-01-10T00:06:43;33.09;30.44;36.16;;
66449;Laerm;56828;52.294;4.666;2023-01-10T00:06:53;30.83;29.10;33.27;;
66449;Laerm;56828;52.294;4.666;2023-01-10T00:07:03;30.45;28.58;32.25;;
66449;Laerm;56828;52.294;4.666;2023-01-10T00:07:13;30.65;29.14;35.84;;
66449;Laerm;56828;52.294;4.666;2023-01-10T00:07:24;30.75;29.38;32.64;;
66449;Laerm;56828;52.294;4.666;2023-01-10T00:07:34;33.44;30.13;36.34;;
66449;Laerm;56828;52.294;4.666;2023-01-10T00:07:45;39.75;35.35;46.43;;
66449;Laerm;56828;52.294;4.666;2023-01-10T00:07:55;37.15;31.84;45.21;;
66449;Laerm;56828;52.294;4.666;2023-01-10T00:08:09;32.27;29.92;34.37;;
66449;Laerm;56828;52.294;4.666;2023-01-10T00:08:25;30.62;28.81;35.03;;
66449;Laerm;56828;52.294;4.666;2023-01-10T00:08:40;32.40;28.93;48.88;;
66449;Laerm;56828;52.294;4.666;2023-01-10T00:08:50;30.30;28.83;32.73;;
66449;Laerm;56828;52.294;4.666;2023-01-10T00:09:03;30.40;28.57;40.28;;
66449;Laerm;56828;52.294;4.666;2023-01-10T00:09:13;30.79;28.45;39.05;;
66449;Laerm;56828;52.294;4.666;2023-01-10T00:09:24;31.93;29.05;44.46;;
66449;Laerm;56828;52.294;4.666;2023-01-10T00:09:34;44.29;30.60;52.06;;
66449;Laerm;56828;52.294;4.666;2023-01-10T00:09:44;44.44;34.00;52.64;;
66449;Laerm;56828;52.294;4.666;2023-01-10T00:10:18;39.41;32.81;48.26;;
66449;Laerm;56828;52.294;4.666;2023-01-10T00:10:29;31.11;28.54;35.64;;
66449;Laerm;56828;52.294;4.666;2023-01-10T00:10:39;29.34;28.18;30.88;;
66449;Laerm;56828;52.294;4.666;2023-01-10T00:10:50;29.38;28.15;31.31;;
66449;Laerm;56828;52.294;4.666;2023-01-10T00:11:00;29.33;27.84;30.42;;
66449;Laerm;56828;52.294;4.666;2023-01-10T00:11:30;29.47;28.23;31.17;;
66449;Laerm;56828;52.294;4.666;2023-01-10T00:11:59;29.59;28.30;30.90;;
66449;Laerm;56828;52.294;4.666;2023-01-10T00:12:28;30.87;28.29;40.59;;
66449;Laerm;56828;52.294;4.666;2023-01-10T00:12:57;31.80;28.84;38.71;;
66449;Laerm;56828;52.294;4.666;2023-01-10T00:13:26;30.31;28.24;36.58;;
66449;Laerm;56828;52.294;4.666;2023-01-10T00:13:36;30.71;28.89;32.29;;
66449;Laerm;56828;52.294;4.666;2023-01-10T00:13:46;30.37;28.83;34.12;;
66449;Laerm;56828;52.294;4.666;2023-01-10T00:13:57;30.72;29.14;35.69;;
66449;Laerm;56828;52.294;4.666;2023-01-10T00:14:07;31.85;30.10;34.60;;
66449;Laerm;56828;52.294;4.666;2023-01-10T00:14:18;30.50;29.12;32.20;;
66449;Laerm;56828;52.294;4.666;2023-01-10T00:14:28;30.43;29.09;32.23;;
66449;Laerm;56828;52.294;4.666;2023-01-10T00:14:38;30.45;28.75;33.98;;
66449;Laerm;56828;52.294;4.666;2023-01-10T00:14:49;30.57;28.95;36.35;;
66449;Laerm;56828;52.294;4.666;2023-01-10T00:14:59;31.51;28.95;43.60;;
66449;Laerm;56828;52.294;4.666;2023-01-10T00:15:10;30.73;29.42;37.93;;
66449;Laerm;56828;52.294;4.666;2023-01-10T00:15:20;30.07;28.76;32.87;;
66449;Laerm;56828;52.294;4.666;2023-01-10T00:15:31;29.89;28.78;31.56;;
66449;Laerm;56828;52.294;4.666;2023-01-10T00:15:42;30.22;28.70;31.95;;
66449;Laerm;56828;52.294;4.666;2023-01-10T00:15:52;30.20;29.04;31.71;;
66449;Laerm;56828;52.294;4.666;2023-01-10T00:16:06;35.16;29.36;47.71;;
66449;Laerm;56828;52.294;4.666;2023-01-10T00:16:17;37.86;32.96;43.33;;
66449;Laerm;56828;52.294;4.666;2023-01-10T00:16:27;37.14;32.90;42.48;;
66449;Laerm;56828;52.294;4.666;2023-01-10T00:16:37;36.25;32.56;46.25;;
66449;Laerm;56828;52.294;4.666;2023-01-10T00:16:48;38.23;31.97;45.17;;
66449;Laerm;56828;52.294;4.666;2023-01-10T00:16:58;45.85;32.12;55.29;;
66449;Laerm;56828;52.294;4.666;2023-01-10T00:17:09;38.83;31.33;47.52;;
66449;Laerm;56828;52.294;4.666;2023-01-10T00:17:19;38.17;29.99;48.77;;
66449;Laerm;56828;52.294;4.666;2023-01-10T00:17:30;34.23;29.48;43.10;;
66449;Laerm;56828;52.294;4.666;2023-01-10T00:17:41;33.05;29.55;43.08;;
66449;Laerm;56828;52.294;4.666;2023-01-10T00:17:51;30.51;28.74;32.61;;
66449;Laerm;56828;52.294;4.666;2023-01-10T00:18:02;30.71;29.52;33.95;;
66449;Laerm;56828;52.294;4.666;2023-01-10T00:18:12;30.55;29.07;34.42;;
66449;Laerm;56828;52.294;4.666;2023-01-10T00:18:22;33.11;30.43;36.31;;
66449;Laerm;56828;52.294;4.666;2023-01-10T00:18:32;31.92;29.75;35.94;;
66449;Laerm;56828;52.294;4.666;2023-01-10T00:18:43;30.73;29.28;32.31;;
66449;Laerm;56828;52.294;4.666;2023-01-10T00:18:53;33.86;31.01;39.32;;
66449;Laerm;56828;52.294;4.666;2023-01-10T00:19:14;36.84;30.39;41.68;;
66449;Laerm;56828;52.294;4.666;2023-01-10T00:19:27;41.45;31.13;60.67;;
66449;Laerm;56828;52.294;4.666;2023-01-10T00:19:37;32.72;29.91;46.32;;
66449;Laerm;56828;52.294;4.666;2023-01-10T00:19:47;32.12;29.80;40.12;;
66449;Laerm;56828;52.294;4.666;2023-01-10T00:20:03;31.68;29.84;34.76;;
66449;Laerm;56828;52.294;4.666;2023-01-10T00:20:13;32.16;29.67;43.24;;
66449;Laerm;56828;52.294;4.666;2023-01-10T00:20:24;34.08;29.57;44.26;;
66449;Laerm;56828;52.294;4.666;2023-01-10T00:20:34;31.11;29.56;34.24;;
66449;Laerm;56828;52.294;4.666;2023-01-10T00:20:45;30.88;29.44;33.12;;
66449;Laerm;56828;52.294;4.666;2023-01-10T00:20:55;30.71;29.13;32.69;;
66449;Laerm;56828;52.294;4.666;2023-01-10T00:21:06;33.77;30.18;43.43;;
66449;Laerm;56828;52.294;4.666;2023-01-10T00:21:18;33.98;31.04;39.69;;
66449;Laerm;56828;52.294;4.666;2023-01-10T00:21:28;33.18;29.76;42.70;;
66449;Laerm;56828;52.294;4.666;2023-01-10T00:21:40;30.62;28.98;41.02;;
66449;Laerm;56828;52.294;4.666;2023-01-10T00:21:50;30.41;29.17;32.21;;
66449;Laerm;56828;52.294;4.666;2023-01-10T00:22:00;30.25;28.94;32.10;;
66449;Laerm;56828;52.294;4.666;2023-01-10T00:22:14;29.85;28.75;31.42;;
66449;Laerm;56828;52.294;4.666;2023-01-10T00:22:27;30.52;29.12;34.22;;
66449;Laerm;56828;52.294;4.666;2023-01-10T00:22:38;30.40;28.98;33.00;;
66449;Laerm;56828;52.294;4.666;2023-01-10T00:22:48;30.01;28.37;36.55;;
66449;Laerm;56828;52.294;4.666;2023-01-10T00:23:00;30.41;29.23;33.29;;
66449;Laerm;56828;52.294;4.666;2023-01-10T00:23:10;34.73;29.41;47.44;;
66449;Laerm;56828;52.294;4.666;2023-01-10T00:23:21;35.11;29.85;51.21;;
66449;Laerm;56828;52.294;4.666;2023-01-10T00:23:31;32.12;30.45;39.89;;
66449;Laerm;56828;52.294;4.666;2023-01-10T00:23:42;33.15;30.56;45.63;;
66449;Laerm;56828;52.294;4.666;2023-01-10T00:23:53;35.25;31.25;46.84;;
66449;Laerm;56828;52.294;4.666;2023-01-10T00:24:03;35.40;31.76;47.91;;
66449;Laerm;56828;52.294;4.666;2023-01-10T00:24:27;35.44;31.47;48.76;;
66449;Laerm;56828;52.294;4.666;2023-01-10T00:24:38;32.17;30.05;35.91;;
66449;Laerm;56828;52.294;4.666;2023-01-10T00:24:48;36.03;32.01;41.37;;
66449;Laerm;56828;52.294;4.666;2023-01-10T00:24:58;37.81;34.99;49.15;;
66449;Laerm;56828;52.294;4.666;2023-01-10T00:25:09;34.81;31.53;36.69;;
66449;Laerm;56828;52.294;4.666;2023-01-10T00:25:20;33.66;31.57;46.09;;
66449;Laerm;56828;52.294;4.666;2023-01-10T00:25:30;32.63;29.33;46.07;;
66449;Laerm;56828;52.294;4.666;2023-01-10T00:25:43;30.23;29.22;34.14;;
66449;Laerm;56828;52.294;4.666;2023-01-10T00:25:53;30.00;28.97;30.96;;
66449;Laerm;56828;52.294;4.666;2023-01-10T00:26:03;29.81;28.78;31.70;;
66449;Laerm;56828;52.294;4.666;2023-01-10T00:26:14;31.39;28.41;41.60;;
66449;Laerm;56828;52.294;4.666;2023-01-10T00:26:27;33.99;29.76;40.86;;
66449;Laerm;56828;52.294;4.666;2023-01-10T00:26:37;36.01;28.93;51.45;;
66449;Laerm;56828;52.294;4.666;2023-01-10T00:26:48;30.34;28.96;35.72;;
66449;Laerm;56828;52.294;4.666;2023-01-10T00:27:02;31.64;29.18;38.38;;
66449;Laerm;56828;52.294;4.666;2023-01-10T00:27:13;32.40;29.73;38.73;;
66449;Laerm;56828;52.294;4.666;2023-01-10T00:27:28;32.58;29.39;41.66;;
66449;Laerm;56828;52.294;4.666;2023-01-10T00:27:39;33.05;28.99;42.86;;
66449;Laerm;56828;52.294;4.666;2023-01-10T00:27:53;33.77;29.20;49.01;;
66449;Laerm;56828;52.294;4.666;2023-01-10T00:28:22;35.16;29.63;43.99;;
66449;Laerm;56828;52.294;4.666;2023-01-10T00:28:32;38.49;35.69;41.60;;
66449;Laerm;56828;52.294;4.666;2023-01-10T00:28:55;34.14;30.11;39.73;;
66449;Laerm;56828;52.294;4.666;2023-01-10T00:29:06;31.04;28.72;37.25;;
66449;Laerm;56828;52.294;4.666;2023-01-10T00:29:21;30.17;28.77;31.57;;
66449;Laerm;56828;52.294;4.666;2023-01-10T00:29:32;34.58;29.13;50.17;;
66449;Laerm;56828;52.294;4.666;2023-01-10T00:29:44;31.08;29.47;33.26;;
66449;Laerm;56828;52.294;4.666;2023-01-10T00:29:55;30.50;28.81;33.91;;
66449;Laerm;56828;52.294;4.666;2023-01-10T00:30:07;31.97;28.87;40.57;;
66449;Laerm;56828;52.294;4.666;2023-01-10T00:30:22;32.26;29.20;43.77;;
66449;Laerm;56828;52.294;4.666;2023-01-10T00:30:33;31.24;29.83;32.94;;
66449;Laerm;56828;52.294;4.666;2023-01-10T00:30:51;30.71;29.23;32.66;;
66449;Laerm;56828;52.294;4.666;2023-01-10T00:31:06;30.48;28.76;33.86;;
66449;Laerm;56828;52.294;4.666;2023-01-10T00:31:17;35.01;29.96;49.68;;
66449;Laerm;56828;52.294;4.666;2023-01-10T00:31:27;37.02;29.37;51.13;;
66449;Laerm;56828;52.294;4.666;2023-01-10T00:31:37;32.25;29.50;38.09;;
66449;Laerm;56828;52.294;4.666;2023-01-10T00:31:48;32.02;30.39;34.78;;
66449;Laerm;56828;52.294;4.666;2023-01-10T00:31:58;31.81;30.07;34.42;;
66449;Laerm;56828;52.294;4.666;2023-01-10T00:32:09;30.17;28.49;33.07;;
66449;Laerm;56828;52.294;4.666;2023-01-10T00:32:19;29.70;28.45;31.16;;
66449;Laerm;56828;52.294;4.666;2023-01-10T00:32:30;29.53;28.39;31.64;;
66449;Laerm;56828;52.294;4.666;2023-01-10T00:32:41;30.01;28.61;32.35;;
66449;Laerm;56828;52.294;4.666;2023-01-10T00:32:52;30.45;28.76;32.80;;
66449;Laerm;56828;52.294;4.666;2023-01-10T00:33:02;29.68;28.43;31.55;;
66449;Laerm;56828;52.294;4.666;2023-01-10T00:33:12;29.62;28.44;31.00;;
66449;Laerm;56828;52.294;4.666;2023-01-10T00:33:28;30.07;28.58;34.71;;
66449;Laerm;56828;52.294;4.666;2023-01-10T00:33:40;30.39;29.05;31.75;;
66449;Laerm;56828;52.294;4.666;2023-01-10T00:33:51;30.46;29.30;31.58;;
66449;Laerm;56828;52.294;4.666;2023-01-10T00:34:01;30.82;29.12;32.77;;
66449;Laerm;56828;52.294;4.666;2023-01-10T00:34:13;30.73;29.17;34.90;;
66449;Laerm;56828;52.294;4.666;2023-01-10T00:34:24;30.19;28.87;32.64;;
66449;Laerm;56828;52.294;4.666;2023-01-10T00:34:34;31.26;29.25;34.25;;
66449;Laerm;56828;52.294;4.666;2023-01-10T00:34:52;35.56;32.06;46.85;;
66449;Laerm;56828;52.294;4.666;2023-01-10T00:35:06;35.32;31.13;51.01;;
66449;Laerm;56828;52.294;4.666;2023-01-10T00:35:17;33.24;30.84;41.31;;
66449;Laerm;56828;52.294;4.666;2023-01-10T00:35:27;31.84;29.57;34.77;;
66449;Laerm;56828;52.294;4.666;2023-01-10T00:35:37;29.60;28.32;31.88;;
66449;Laerm;56828;52.294;4.666;2023-01-10T00:35:50;30.65;28.71;32.39;;
66449;Laerm;56828;52.294;4.666;2023-01-10T00:36:02;29.53;28.44;31.23;;
66449;Laerm;56828;52.294;4.666;2023-01-10T00:36:15;29.76;28.10;31.73;;
66449;Laerm;56828;52.294;4.666;2023-01-10T00:36:25;30.63;29.19;36.32;;
66449;Laerm;56828;52.294;4.666;2023-01-10T00:36:36;30.95;28.89;44.59;;
66449;Laerm;56828;52.294;4.666;2023-01-10T00:36:49;31.10;28.51;34.00;;
66449;Laerm;56828;52.294;4.666;2023-01-10T00:36:59;29.67;28.24;31.31;;
66449;Laerm;56828;52.294;4.666;2023-01-10T00:37:10;31.48;29.10;34.23;;
66449;Laerm;56828;52.294;4.666;2023-01-10T00:37:20;29.96;28.60;34.11;;
66449;Laerm;56828;52.294;4.666;2023-01-10T00:37:31;29.55;28.32;33.10;;
66449;Laerm;56828;52.294;4.666;2023-01-10T00:37:41;29.54;28.52;31.50;;
66449;Laerm;56828;52.294;4.666;2023-01-10T00:37:51;29.79;28.46;31.20;;
66449;Laerm;56828;52.294;4.666;2023-01-10T00:38:06;29.46;28.28;33.73;;
66449;Laerm;56828;52.294;4.666;2023-01-10T00:38:17;29.48;28.28;35.58;;
66449;Laerm;56828;52.294;4.666;2023-01-10T00:38:27;29.33;27.98;30.87;;
66449;Laerm;56828;52.294;4.666;2023-01-10T00:38:40;29.48;28.22;31.32;;
66449;Laerm;56828;52.294;4.666;2023-01-10T00:38:50;29.60;28.35;31.16;;
66449;Laerm;56828;52.294;4.666;2023-01-10T00:39:03;29.90;28.61;31.90;;
66449;Laerm;56828;52.294;4.666;2023-01-10T00:39:15;29.64;28.14;35.16;;
66449;Laerm;56828;52.294;4.666;2023-01-10T00:39:29;29.44;28.35;30.88;;
66449;Laerm;56828;52.294;4.666;2023-01-10T00:39:40;29.50;28.05;30.90;;
66449;Laerm;56828;52.294;4.666;2023-01-10T00:39:50;29.67;28.13;31.25;;
66449;Laerm;56828;52.294;4.666;2023-01-10T00:40:01;29.54;28.11;30.95;;
66449;Laerm;56828;52.294;4.666;2023-01-10T00:40:11;29.62;28.40;32.12;;
66449;Laerm;56828;52.294;4.666;2023-01-10T00:40:24;33.09;28.43;46.75;;
66449;Laerm;56828;52.294;4.666;2023-01-10T00:40:36;31.05;29.32;35.61;;
66449;Laerm;56828;52.294;4.666;2023-01-10T00:40:49;30.51;28.81;32.59;;
66449;Laerm;56828;52.294;4.666;2023-01-10T00:41:02;29.87;28.46;30.97;;
66449;Laerm;56828;52.294;4.666;2023-01-10T00:41:12;30.38;28.72;39.09;;
66449;Laerm;56828;52.294;4.666;2023-01-10T00:41:41;30.30;28.64;38.62;;
66449;Laerm;56828;52.294;4.666;2023-01-10T00:42:10;32.36;29.21;37.90;;
66449;Laerm;56828;52.294;4.666;2023-01-10T00:42:39;31.66;28.51;43.23;;
66449;Laerm;56828;52.294;4.666;2023-01-10T00:43:09;29.72;28.07;31.21;;
66449;Laerm;56828;52.294;4.666;2023-01-10T00:43:38;29.81;28.47;33.29;;
66449;Laerm;56828;52.294;4.666;2023-01-10T00:44:06;31.91;28.81;40.82;;
66449;Laerm;56828;52.294;4.666;2023-01-10T00:44:17;31.11;28.78;38.52;;
66449;Laerm;56828;52.294;4.666;2023-01-10T00:44:28;29.75;28.51;31.41;;
66449;Laerm;56828;52.294;4.666;2023-01-10T00:44:41;29.63;28.37;32.54;;
66449;Laerm;56828;52.294;4.666;2023-01-10T00:44:53;31.79;28.48;37.49;;
66449;Laerm;56828;52.294;4.666;2023-01-10T00:45:06;29.65;28.17;31.31;;
66449;Laerm;56828;52.294;4.666;2023-01-10T00:45:16;30.20;28.69;37.23;;
66449;Laerm;56828;52.294;4.666;2023-01-10T00:45:28;29.84;28.59;31.64;;
66449;Laerm;56828;52.294;4.666;2023-01-10T00:45:39;30.40;28.99;32.42;;
66449;Laerm;56828;52.294;4.666;2023-01-10T00:45:50;31.28;29.22;45.72;;
66449;Laerm;56828;52.294;4.666;2023-01-10T00:46:05;36.87;30.01;45.73;;
66449;Laerm;56828;52.294;4.666;2023-01-10T00:46:16;38.03;33.31;50.05;;
66449;Laerm;56828;52.294;4.666;2023-01-10T00:46:29;36.91;31.42;51.62;;
66449;Laerm;56828;52.294;4.666;2023-01-10T00:46:39;35.26;30.27;49.18;;
66449;Laerm;56828;52.294;4.666;2023-01-10T00:46:50;31.88;29.79;39.71;;
66449;Laerm;56828;52.294;4.666;2023-01-10T00:47:01;31.61;29.71;36.02;;
66449;Laerm;56828;52.294;4.666;2023-01-10T00:47:13;32.60;28.85;44.43;;
66449;Laerm;56828;52.294;4.666;2023-01-10T00:47:23;34.00;30.20;38.30;;
66449;Laerm;56828;52.294;4.666;2023-01-10T00:47:34;37.82;34.64;41.84;;
66449;Laerm;56828;52.294;4.666;2023-01-10T00:47:50;37.70;34.61;51.56;;
66449;Laerm;56828;52.294;4.666;2023-01-10T00:48:00;35.26;32.83;44.18;;
66449;Laerm;56828;52.294;4.666;2023-01-10T00:48:11;46.77;32.80;63.17;;
66449;Laerm;56828;52.294;4.666;2023-01-10T00:48:28;35.22;31.52;45.23;;
66449;Laerm;56828;52.294;4.666;2023-01-10T00:48:38;40.18;30.08;59.17;;
66449;Laerm;56828;52.294;4.666;2023-01-10T00:48:50;41.18;34.26;55.11;;
66449;Laerm;56828;52.294;4.666;2023-01-10T00:49:01;37.69;33.82;50.50;;
66449;Laerm;56828;52.294;4.666;2023-01-10T00:49:15;36.58;32.51;53.24;;
66449;Laerm;56828;52.294;4.666;2023-01-10T00:49:27;32.51;30.61;39.25;;
66449;Laerm;56828;52.294;4.666;2023-01-10T00:49:41;31.28;29.66;42.51;;
66449;Laerm;56828;52.294;4.666;2023-01-10T00:49:52;32.37;29.78;42.62;;
66449;Laerm;56828;52.294;4.666;2023-01-10T00:50:05;31.51;29.89;38.44;;
66449;Laerm;56828;52.294;4.666;2023-01-10T00:50:15;31.83;29.54;36.67;;
66449;Laerm;56828;52.294;4.666;2023-01-10T00:50:26;31.79;29.23;36.10;;
66449;Laerm;56828;52.294;4.666;2023-01-10T00:50:36;34.16;29.01;44.29;;
66449;Laerm;56828;52.294;4.666;2023-01-10T00:50:46;32.45;29.28;39.33;;
66449;Laerm;56828;52.294;4.666;2023-01-10T00:50:57;30.82;28.60;38.78;;
66449;Laerm;56828;52.294;4.666;2023-01-10T00:51:13;31.44;29.61;37.92;;
66449;Laerm;56828;52.294;4.666;2023-01-10T00:51:26;31.60;29.47;38.45;;
66449;Laerm;56828;52.294;4.666;2023-01-10T00:51:36;31.01;29.14;37.41;;
66449;Laerm;56828;52.294;4.666;2023-01-10T00:51:47;31.67;29.02;39.95;;
66449;Laerm;56828;52.294;4.666;2023-01-10T00:52:06;34.00;30.11;39.26;;
66449;Laerm;56828;52.294;4.666;2023-01-10T00:52:16;31.96;30.00;36.77;;
66449;Laerm;56828;52.294;4.666;2023-01-10T00:52:35;32.36;29.26;39.94;;
66449;Laerm;56828;52.294;4.666;2023-01-10T00:52:45;35.78;29.29;53.80;;
66449;Laerm;56828;52.294;4.666;2023-01-10T00:52:56;32.42;30.08;43.12;;
66449;Laerm;56828;52.294;4.666;2023-01-10T00:53:06;32.94;29.73;36.97;;
66449;Laerm;56828;52.294;4.666;2023-01-10T00:53:16;32.80;30.11;38.90;;
66449;Laerm;56828;52.294;4.666;2023-01-10T00:53:27;32.83;29.27;36.07;;
66449;Laerm;56828;52.294;4.666;2023-01-10T00:53:37;32.40;30.12;36.87;;
66449;Laerm;56828;52.294;4.666;2023-01-10T00:53:50;31.53;29.80;36.94;;
66449;Laerm;56828;52.294;4.666;2023-01-10T00:54:00;30.60;28.83;35.26;;
66449;Laerm;56828;52.294;4.666;2023-01-10T00:54:11;29.78;28.44;36.48;;
66449;Laerm;56828;52.294;4.666;2023-01-10T00:54:22;30.12;28.58;36.29;;
66449;Laerm;56828;52.294;4.666;2023-01-10T00:54:32;30.11;28.55;34.73;;
66449;Laerm;56828;52.294;4.666;2023-01-10T00:54:42;30.10;28.70;34.45;;
66449;Laerm;56828;52.294;4.666;2023-01-10T00:54:53;30.40;28.89;35.50;;
66449;Laerm;56828;52.294;4.666;2023-01-10T00:55:03;30.45;29.00;35.37;;
66449;Laerm;56828;52.294;4.666;2023-01-10T00:55:14;30.90;29.03;33.40;;
66449;Laerm;56828;52.294;4.666;2023-01-10T00:55:32;32.04;29.77;37.03;;
66449;Laerm;56828;52.294;4.666;2023-01-10T00:55:42;34.07;30.18;39.10;;
66449;Laerm;56828;52.294;4.666;2023-01-10T00:55:53;31.43;29.37;35.88;;
66449;Laerm;56828;52.294;4.666;2023-01-10T00:56:04;32.63;29.37;43.74;;
66449;Laerm;56828;52.294;4.666;2023-01-10T00:56:14;30.70;29.03;36.29;;
66449;Laerm;56828;52.294;4.666;2023-01-10T00:56:25;31.83;29.54;39.07;;
66449;Laerm;56828;52.294;4.666;2023-01-10T00:56:35;30.47;28.80;36.00;;
66449;Laerm;56828;52.294;4.666;2023-01-10T00:56:46;30.18;28.55;37.41;;
66449;Laerm;56828;52.294;4.666;2023-01-10T00:56:56;30.20;28.56;35.86;;
66449;Laerm;56828;52.294;4.666;2023-01-10T00:57:06;31.65;29.61;39.31;;
66449;Laerm;56828;52.294;4.666;2023-01-10T00:57:17;37.72;30.96;49.65;;
66449;Laerm;56828;52.294;4.666;2023-01-10T00:57:27;44.93;30.62;59.89;;
66449;Laerm;56828;52.294;4.666;2023-01-10T00:57:37;41.07;29.98;56.13;;
66449;Laerm;56828;52.294;4.666;2023-01-10T00:57:49;30.47;28.90;34.91;;
66449;Laerm;56828;52.294;4.666;2023-01-10T00:57:59;31.06;28.93;38.18;;
66449;Laerm;56828;52.294;4.666;2023-01-10T00:58:09;35.35;30.48;47.44;;
66449;Laerm;56828;52.294;4.666;2023-01-10T00:58:21;32.04;29.90;36.75;;
66449;Laerm;56828;52.294;4.666;2023-01-10T00:58:31;33.82;30.16;45.57;;
66449;Laerm;56828;52.294;4.666;2023-01-10T00:58:43;36.55;30.47;47.60;;
66449;Laerm;56828;52.294;4.666;2023-01-10T00:58:54;30.45;28.79;36.13;;
66449;Laerm;56828;52.294;4.666;2023-01-10T00:59:04;30.22;28.54;38.14;;
66449;Laerm;56828;52.294;4.666;2023-01-10T00:59:15;30.27;28.43;35.35;;
66449;Laerm;56828;52.294;4.666;2023-01-10T00:59:25;30.79;29.00;34.74;;
66449;Laerm;56828;52.294;4.666;2023-01-10T00:59:38;30.16;28.76;37.66;;
66449;Laerm;56828;52.294;4.666;2023-01-10T00:59:48;30.41;29.05;34.61;;
66449;Laerm;56828;52.294;4.666;2023-01-10T01:00:04;31.60;29.22;37.03;;
66449;Laerm;56828;52.294;4.666;2023-01-10T01:00:18;32.39;28.74;42.77;;
66449;Laerm;56828;52.294;4.666;2023-01-10T01:00:28;30.19;28.69;38.23;;
66449;Laerm;56828;52.294;4.666;2023-01-10T01:00:42;31.77;29.14;41.15;;
66449;Laerm;56828;52.294;4.666;2023-01-10T01:00:55;30.26;28.73;35.15;;
66449;Laerm;56828;52.294;4.666;2023-01-10T01:01:06;30.32;28.22;36.05;;
66449;Laerm;56828;52.294;4.666;2023-01-10T01:01:16;30.02;28.46;38.98;;
66449;Laerm;56828;52.294;4.666;2023-01-10T01:01:28;30.21;28.64;33.01;;
66449;Laerm;56828;52.294;4.666;2023-01-10T01:01:38;33.30;29.07;41.48;;
66449;Laerm;56828;52.294;4.666;2023-01-10T01:01:49;32.50;28.69;44.34;;
66449;Laerm;56828;52.294;4.666;2023-01-10T01:02:00;30.19;28.51;37.29;;
66449;Laerm;56828;52.294;4.666;2023-01-10T01:02:10;29.64;28.58;32.07;;
66449;Laerm;56828;52.294;4.666;2023-01-10T01:02:20;30.04;28.75;36.16;;
66449;Laerm;56828;52.294;4.666;2023-01-10T01:02:30;30.25;28.66;37.27;;
66449;Laerm;56828;52.294;4.666;2023-01-10T01:02:41;30.94;28.87;38.54;;
66449;Laerm;56828;52.294;4.666;2023-01-10T01:02:51;31.69;29.37;35.61;;
66449;Laerm;56828;52.294;4.666;2023-01-10T01:03:01;32.08;30.89;35.90;;
66449;Laerm;56828;52.294;4.666;2023-01-10T01:03:12;30.71;28.88;33.67;;
66449;Laerm;56828;52.294;4.666;2023-01-10T01:03:23;30.47;28.77;40.30;;
66449;Laerm;56828;52.294;4.666;2023-01-10T01:03:33;29.69;28.59;35.57;;
66449;Laerm;56828;52.294;4.666;2023-01-10T01:03:43;29.74;28.66;31.35;;
66449;Laerm;56828;52.294;4.666;2023-01-10T01:03:53;34.47;28.79;47.26;;
66449;Laerm;56828;52.294;4.666;2023-01-10T01:04:04;31.08;28.51;38.91;;
66449;Laerm;56828;52.294;4.666;2023-01-10T01:04:14;29.58;28.51;32.52;;
66449;Laerm;56828;52.294;4.666;2023-01-10T01:04:25;30.64;29.01;36.29;;
66449;Laerm;56828;52.294;4.666;2023-01-10T01:04:35;30.49;28.84;33.02;;
66449;Laerm;56828;52.294;4.666;2023-01-10T01:04:45;34.85;29.16;52.24;;
66449;Laerm;56828;52.294;4.666;2023-01-10T01:04:56;30.05;28.51;35.76;;
66449;Laerm;56828;52.294;4.666;2023-01-10T01:05:06;30.19;28.74;35.65;;
66449;Laerm;56828;52.294;4.666;2023-01-10T01:05:17;30.98;29.06;37.97;;
66449;Laerm;56828;52.294;4.666;2023-01-10T01:05:27;30.54;28.92;36.94;;
66449;Laerm;56828;52.294;4.666;2023-01-10T01:05:41;30.41;28.35;32.88;;
66449;Laerm;56828;52.294;4.666;2023-01-10T01:05:52;31.78;28.49;42.46;;
66449;Laerm;56828;52.294;4.666;2023-01-10T01:06:03;29.48;28.16;35.69;;
66449;Laerm;56828;52.294;4.666;2023-01-10T01:06:14;29.58;28.49;35.80;;
66449;Laerm;56828;52.294;4.666;2023-01-10T01:06:25;29.52;28.52;32.69;;
66449;Laerm;56828;52.294;4.666;2023-01-10T01:06:35;29.56;28.61;35.61;;
66449;Laerm;56828;52.294;4.666;2023-01-10T01:06:47;29.31;28.17;30.66;;
66449;Laerm;56828;52.294;4.666;2023-01-10T01:07:00;29.73;28.15;36.50;;
66449;Laerm;56828;52.294;4.666;2023-01-10T01:07:11;29.71;28.47;32.19;;